createdAt,value
2019-04-29T00:03:15.930Z,99.90
2019-04-29T00:08:20.304Z,99.90
2019-04-29T00:13:25.235Z,99.90
2019-04-29T00:18:37.155Z,99.90
2019-04-29T00:23:42.223Z,99.90
2019-04-29T00:28:50.244Z,99.90
2019-04-29T00:33:54.029Z,99.90
2019-04-29T00:39:17.468Z,99.90
2019-04-29T00:44:22.006Z,99.90
2019-04-29T00:49:26.890Z,99.90
2019-04-29T00:54:39.417Z,99.90
2019-04-29T00:59:44.102Z,99.90
2019-04-29T01:04:49.079Z,99.90
2019-04-29T01:09:53.480Z,99.90
2019-04-29T01:14:58.207Z,99.90
2019-04-29T01:20:02.769Z,99.90
2019-04-29T01:25:07.368Z,99.90
2019-04-29T01:30:33.895Z,99.90
2019-04-29T01:35:38.846Z,99.90
2019-04-29T01:40:52.897Z,99.90
2019-04-29T01:45:57.989Z,99.90
2019-04-29T01:51:02.767Z,99.90
2019-04-29T01:56:08.507Z,99.90
2019-04-29T02:01:14.070Z,99.90
2019-04-29T02:06:18.350Z,99.90
2019-04-29T02:11:23.244Z,99.90
2019-04-29T02:16:28.485Z,99.90
2019-04-29T02:21:34.470Z,99.90
2019-04-29T02:26:39.201Z,99.90
2019-04-29T02:31:45.685Z,99.90
2019-04-29T02:36:50.250Z,99.90
2019-04-29T02:42:13.658Z,99.90
2019-04-29T02:47:18.711Z,99.90
2019-04-29T02:52:23.122Z,99.90
2019-04-29T02:57:38.624Z,99.90
2019-04-29T03:02:51.252Z,99.90
2019-04-29T03:07:57.412Z,99.90
2019-04-29T03:13:02.441Z,99.90
2019-04-29T03:18:06.868Z,99.90
2019-04-29T03:23:14.528Z,99.90
2019-04-29T03:28:19.728Z,99.90
2019-04-29T03:33:24.978Z,99.90
2019-04-29T03:38:29.932Z,99.90
2019-04-29T03:43:35.013Z,99.90
2019-04-29T03:48:39.486Z,99.90
2019-04-29T03:53:44.192Z,99.90
2019-04-29T03:58:49.059Z,99.90
2019-04-29T04:03:58.288Z,99.90
2019-04-29T04:09:20.029Z,99.90
2019-04-29T04:14:25.116Z,99.90
2019-04-29T04:19:30.660Z,99.90
2019-04-29T04:24:35.225Z,99.90
2019-04-29T04:29:40.047Z,99.90
2019-04-29T04:34:47.883Z,99.90
2019-04-29T04:39:52.776Z,99.90
2019-04-29T04:44:57.965Z,99.90
2019-04-29T04:50:03.024Z,99.90
2019-04-29T04:55:07.880Z,99.90
2019-04-29T05:00:21.845Z,99.90
2019-04-29T05:05:27.429Z,99.90
2019-04-29T05:10:32.099Z,99.90
2019-04-29T05:15:36.731Z,99.90
2019-04-29T05:20:41.634Z,99.90
2019-04-29T05:25:45.974Z,99.90
2019-04-29T05:30:50.740Z,99.90
2019-04-29T05:36:13.199Z,99.90
2019-04-29T05:41:18.567Z,99.90
2019-04-29T05:46:38.261Z,99.90
2019-04-29T05:51:51.861Z,99.90
2019-04-29T05:56:56.908Z,99.90
2019-04-29T06:02:01.587Z,99.90
2019-04-29T06:07:06.372Z,99.90
2019-04-29T06:12:11.434Z,99.90
2019-04-29T06:17:15.937Z,99.90
2019-04-29T06:22:20.488Z,99.90
2019-04-29T06:27:25.220Z,99.90
2019-04-29T06:32:29.687Z,99.90
2019-04-29T06:37:34.380Z,99.90
2019-04-29T06:42:39.348Z,99.90
2019-04-29T06:47:44.531Z,99.90
2019-04-29T06:52:48.976Z,99.90
2019-04-29T06:57:53.700Z,99.90
2019-04-29T07:02:58.490Z,99.90
2019-04-29T07:08:03.331Z,99.90
2019-04-29T07:13:07.878Z,99.90
2019-04-29T07:18:12.710Z,99.90
2019-04-29T07:23:17.084Z,99.90
2019-04-29T07:28:21.816Z,99.90
2019-04-29T07:33:26.423Z,99.90
2019-04-29T07:38:41.343Z,99.90
2019-04-29T07:43:38.693Z,99.90
2019-04-29T07:48:43.846Z,99.90
2019-04-29T07:53:48.776Z,99.90
2019-04-29T07:58:54.278Z,99.90
2019-04-29T08:03:58.805Z,99.90
2019-04-29T08:09:07.959Z,99.90
2019-04-29T08:14:11.768Z,99.90
2019-04-29T08:19:16.303Z,99.90
2019-04-29T08:24:20.796Z,99.90
2019-04-29T08:29:25.533Z,99.90
2019-04-29T08:34:30.163Z,99.90
2019-04-29T08:39:36.049Z,99.90
2019-04-29T08:45:01.140Z,94.70
2019-04-29T08:50:06.015Z,91.60
2019-04-29T08:55:10.758Z,93.80
2019-04-29T09:00:16.683Z,96.20
2019-04-29T09:05:21.342Z,94.70
2019-04-29T09:10:26.242Z,97.70
2019-04-29T09:15:30.925Z,95.50
2019-04-29T09:20:35.731Z,96.60
2019-04-29T09:26:17.686Z,98.50
2019-04-29T09:31:22.619Z,93.00
2019-04-29T09:36:28.723Z,91.50
2019-04-29T09:41:40.309Z,92.20
2019-04-29T09:46:45.033Z,91.80
2019-04-29T09:51:49.775Z,92.50
2019-04-29T09:56:54.535Z,90.00
2019-04-29T10:02:26.201Z,87.60
2019-04-29T10:07:30.464Z,91.50
2019-04-29T10:12:35.073Z,90.40
2019-04-29T10:18:01.035Z,94.30
2019-04-29T10:23:05.660Z,95.90
2019-04-29T10:28:10.863Z,95.20
2019-04-29T10:33:17.743Z,95.90
2019-04-29T10:38:22.428Z,95.30
2019-04-29T10:43:55.907Z,97.40
2019-04-29T10:49:08.907Z,97.00
2019-04-29T10:54:14.323Z,99.90
2019-04-29T10:59:19.630Z,94.50
2019-04-29T11:04:26.389Z,95.50
2019-04-29T11:09:50.765Z,94.00
2019-04-29T11:14:56.424Z,95.80
2019-04-29T11:20:01.540Z,93.00
2019-04-29T11:25:29.185Z,93.00
2019-04-29T11:30:39.572Z,90.50
2019-04-29T11:35:51.196Z,91.40
2019-04-29T11:40:57.463Z,90.60
2019-04-29T11:46:02.511Z,90.90
2019-04-29T11:51:34.159Z,90.00
2019-04-29T11:56:39.854Z,82.20
2019-04-29T12:01:59.687Z,85.00
2019-04-29T12:07:04.027Z,85.30
2019-04-29T12:12:12.952Z,80.50
2019-04-29T12:17:41.639Z,90.00
2019-04-29T12:22:48.633Z,82.80
2019-04-29T12:28:01.258Z,82.90
2019-04-29T12:33:10.154Z,88.30
2019-04-29T12:38:49.848Z,86.50
2019-04-29T12:44:05.313Z,86.00
2019-04-29T12:49:13.524Z,82.10
2019-04-29T12:54:16.071Z,84.80
2019-04-29T12:59:20.875Z,86.30
2019-04-29T13:04:56.442Z,84.30
2019-04-29T13:10:07.031Z,89.20
2019-04-29T13:15:33.332Z,83.60
2019-04-29T13:20:41.585Z,80.20
2019-04-29T13:25:44.914Z,82.80
2019-04-29T13:30:51.534Z,83.60
2019-04-29T13:35:55.700Z,84.50
2019-04-29T13:41:13.247Z,83.00
2019-04-29T13:46:31.363Z,83.60
2019-04-29T13:51:36.955Z,89.20
2019-04-29T13:56:55.598Z,83.30
2019-04-29T14:02:01.301Z,85.70
2019-04-29T14:07:04.081Z,82.20
2019-04-29T14:12:46.456Z,84.10
2019-04-29T14:17:26.026Z,86.20
2019-04-29T14:22:22.765Z,86.00
2019-04-29T14:27:27.481Z,80.80
2019-04-29T14:32:36.074Z,79.20
2019-04-29T14:37:38.889Z,77.20
2019-04-29T14:43:02.877Z,82.90
2019-04-29T14:48:41.286Z,86.70
2019-04-29T14:53:33.887Z,82.10
2019-04-29T14:58:38.746Z,83.30
2019-04-29T15:03:55.376Z,84.70
2019-04-29T15:09:01.132Z,83.60
2019-04-29T15:14:25.716Z,84.00
2019-04-29T15:19:54.713Z,83.90
2019-04-29T15:24:56.236Z,81.80
2019-04-29T15:36:06.253Z,83.80
2019-04-29T15:41:11.309Z,89.30
2019-04-29T15:46:16.054Z,87.80
2019-04-29T15:51:21.304Z,85.80
2019-04-29T16:01:33.492Z,88.60
2019-04-29T16:06:53.357Z,90.40
2019-04-29T16:12:20.221Z,90.90
2019-04-29T16:17:25.692Z,89.80
2019-04-29T16:22:30.212Z,91.50
2019-04-29T16:27:34.758Z,90.10
2019-04-29T16:32:42.478Z,87.30
2019-04-29T16:37:48.030Z,91.20
2019-04-29T16:43:10.228Z,90.80
2019-04-29T16:48:15.804Z,91.60
2019-04-29T16:53:21.231Z,91.90
2019-04-29T16:58:26.192Z,91.90
2019-04-29T17:03:30.955Z,92.50
2019-04-29T17:09:02.995Z,91.30
2019-04-29T17:14:03.382Z,93.50
2019-04-29T17:19:07.667Z,94.90
2019-04-29T17:24:13.037Z,98.10
2019-04-29T17:29:39.340Z,99.90
2019-04-29T17:34:59.083Z,99.90
2019-04-29T17:35:17.074Z,86.70
2019-04-29T17:39:51.579Z,99.40
2019-04-29T17:44:56.784Z,99.90
2019-04-29T17:50:13.818Z,99.90
2019-04-29T17:55:38.086Z,99.90
2019-04-29T18:00:59.587Z,99.90
2019-04-29T18:06:08.979Z,99.90
2019-04-29T18:11:15.018Z,99.90
2019-04-29T18:16:25.997Z,99.90
2019-04-29T18:21:47.360Z,99.90
2019-04-29T18:26:57.340Z,99.90
2019-04-29T18:32:05.171Z,99.90
2019-04-29T18:37:10.855Z,99.90
2019-04-29T18:42:16.005Z,99.90
2019-04-29T18:47:23.108Z,99.90
2019-04-29T18:52:28.491Z,99.90
2019-04-29T18:57:33.634Z,99.90
2019-04-29T19:02:45.443Z,99.90
2019-04-29T19:07:55.029Z,99.90
2019-04-29T19:13:00.055Z,99.90
2019-04-29T19:18:05.506Z,99.90
2019-04-29T19:23:10.405Z,99.90
2019-04-29T19:28:24.943Z,99.90
2019-04-29T19:33:21.629Z,99.90
2019-04-29T19:38:26.615Z,99.90
2019-04-29T19:43:31.702Z,99.90
2019-04-29T19:48:36.753Z,99.90
2019-04-29T19:53:43.418Z,99.90
2019-04-29T19:58:48.894Z,99.90
2019-04-29T20:04:17.738Z,99.90
2019-04-29T20:09:23.556Z,99.90
2019-04-29T20:14:33.265Z,99.90
2019-04-29T20:20:00.810Z,99.90
2019-04-29T20:25:16.665Z,99.90
2019-04-29T20:30:21.619Z,99.90
2019-04-29T20:35:26.802Z,99.90
2019-04-29T20:40:37.897Z,99.90
2019-04-29T20:45:38.438Z,99.90
2019-04-29T20:50:47.038Z,99.90
2019-04-29T20:55:49.458Z,99.90
2019-04-29T21:00:58.198Z,99.90
2019-04-29T21:06:02.897Z,99.90
2019-04-29T21:11:14.357Z,99.90
2019-04-29T21:16:29.137Z,99.90
2019-04-29T21:21:32.022Z,99.90
2019-04-29T21:26:43.940Z,99.90
2019-04-29T21:31:45.900Z,99.90
2019-04-29T21:37:10.176Z,99.90
2019-04-29T21:42:35.786Z,99.90
2019-04-29T21:47:44.307Z,99.90
2019-04-29T21:52:42.957Z,99.90
2019-04-29T21:57:47.467Z,99.90
2019-04-29T22:02:55.293Z,99.90
2019-04-29T22:08:00.155Z,99.90
2019-04-29T22:13:05.125Z,99.90
2019-04-29T22:18:13.998Z,99.90
2019-04-29T22:23:17.454Z,99.90
2019-04-29T22:28:24.522Z,99.90
2019-04-29T22:33:35.013Z,99.90
2019-04-29T22:38:37.615Z,99.90
2019-04-29T22:43:50.466Z,99.90
2019-04-29T22:48:55.798Z,99.90
2019-04-29T22:54:01.737Z,99.90
2019-04-29T22:59:06.524Z,99.90
2019-04-29T23:04:14.606Z,99.90
2019-04-29T23:09:18.271Z,99.90
2019-04-29T23:14:25.161Z,99.90
2019-04-29T23:19:31.140Z,99.90
2019-04-29T23:24:55.727Z,99.90
2019-04-29T23:30:01.609Z,99.90
2019-04-29T23:35:09.684Z,99.90
2019-04-29T23:40:13.594Z,99.90
2019-04-29T23:45:21.013Z,99.90
2019-04-29T23:50:28.071Z,99.90
2019-04-29T23:55:32.309Z,99.90
